sensor_id;sensor_type;location;lat;lon;timestamp;temperature;humidity
77052;SHT30;65980;44.898;8.602;2023-07-30T00:01:57;23.24;78.28
77052;SHT30;65980;44.898;8.602;2023-07-30T00:05:02;23.26;78.18
77052;SHT30;65980;44.898;8.602;2023-07-30T00:08:05;23.24;77.90
77052;SHT30;65980;44.898;8.602;2023-07-30T00:11:10;23.55;77.03
77052;SHT30;65980;44.898;8.602;2023-07-30T00:14:15;23.51;77.05
77052;SHT30;65980;44.898;8.602;2023-07-30T00:17:18;23.40;77.36
77052;SHT30;65980;44.898;8.602;2023-07-30T00:20:22;23.46;77.10
77052;SHT30;65980;44.898;8.602;2023-07-30T00:23:26;23.34;77.46
77052;SHT30;65980;44.898;8.602;2023-07-30T00:26:30;23.27;78.12
77052;SHT30;65980;44.898;8.602;2023-07-30T00:29:34;23.30;78.20
77052;SHT30;65980;44.898;8.602;2023-07-30T00:32:39;23.37;77.61
77052;SHT30;65980;44.898;8.602;2023-07-30T00:35:51;23.48;77.53
77052;SHT30;65980;44.898;8.602;2023-07-30T00:38:54;23.41;77.86
77052;SHT30;65980;44.898;8.602;2023-07-30T00:41:58;23.47;77.30
77052;SHT30;65980;44.898;8.602;2023-07-30T00:45:04;23.36;78.48
77052;SHT30;65980;44.898;8.602;2023-07-30T00:48:10;23.40;78.06
77052;SHT30;65980;44.898;8.602;2023-07-30T00:51:15;23.30;78.70
77052;SHT30;65980;44.898;8.602;2023-07-30T00:54:19;23.40;78.08
77052;SHT30;65980;44.898;8.602;2023-07-30T00:57:23;23.43;77.41
77052;SHT30;65980;44.898;8.602;2023-07-30T01:00:28;23.41;77.63
77052;SHT30;65980;44.898;8.602;2023-07-30T01:03:33;23.23;79.02
77052;SHT30;65980;44.898;8.602;2023-07-30T01:06:38;23.24;78.65
77052;SHT30;65980;44.898;8.602;2023-07-30T01:09:42;23.40;77.24
77052;SHT30;65980;44.898;8.602;2023-07-30T01:12:46;23.30;77.85
77052;SHT30;65980;44.898;8.602;2023-07-30T01:15:52;23.43;77.28
77052;SHT30;65980;44.898;8.602;2023-07-30T01:18:57;23.37;77.95
77052;SHT30;65980;44.898;8.602;2023-07-30T01:22:03;23.21;79.63
77052;SHT30;65980;44.898;8.602;2023-07-30T01:25:07;23.33;78.27
77052;SHT30;65980;44.898;8.602;2023-07-30T01:28:17;23.17;79.48
77052;SHT30;65980;44.898;8.602;2023-07-30T01:31:24;23.26;78.56
77052;SHT30;65980;44.898;8.602;2023-07-30T01:34:30;23.23;78.39
77052;SHT30;65980;44.898;8.602;2023-07-30T01:37:38;23.09;78.73
77052;SHT30;65980;44.898;8.602;2023-07-30T01:40:43;23.02;78.91
77052;SHT30;65980;44.898;8.602;2023-07-30T01:43:47;22.92;79.34
77052;SHT30;65980;44.898;8.602;2023-07-30T01:46:55;22.89;79.32
77052;SHT30;65980;44.898;8.602;2023-07-30T01:49:59;22.83;79.95
77052;SHT30;65980;44.898;8.602;2023-07-30T01:53:04;22.75;80.31
77052;SHT30;65980;44.898;8.602;2023-07-30T01:56:08;22.62;81.24
77052;SHT30;65980;44.898;8.602;2023-07-30T01:59:12;22.52;81.04
77052;SHT30;65980;44.898;8.602;2023-07-30T02:02:16;22.58;80.81
77052;SHT30;65980;44.898;8.602;2023-07-30T02:05:20;22.73;80.55
77052;SHT30;65980;44.898;8.602;2023-07-30T02:08:25;22.82;80.20
77052;SHT30;65980;44.898;8.602;2023-07-30T02:11:29;22.71;80.22
77052;SHT30;65980;44.898;8.602;2023-07-30T02:14:33;22.33;81.59
77052;SHT30;65980;44.898;8.602;2023-07-30T02:17:39;22.57;80.64
77052;SHT30;65980;44.898;8.602;2023-07-30T02:20:43;22.61;81.22
77052;SHT30;65980;44.898;8.602;2023-07-30T02:23:47;22.66;80.69
77052;SHT30;65980;44.898;8.602;2023-07-30T02:26:52;22.71;80.17
77052;SHT30;65980;44.898;8.602;2023-07-30T02:29:56;22.59;80.60
77052;SHT30;65980;44.898;8.602;2023-07-30T02:33:02;22.64;80.50
77052;SHT30;65980;44.898;8.602;2023-07-30T02:36:06;22.55;80.99
77052;SHT30;65980;44.898;8.602;2023-07-30T02:39:10;22.44;81.79
77052;SHT30;65980;44.898;8.602;2023-07-30T02:42:15;22.41;82.34
77052;SHT30;65980;44.898;8.602;2023-07-30T02:45:20;22.38;82.30
77052;SHT30;65980;44.898;8.602;2023-07-30T02:48:24;22.33;83.22
77052;SHT30;65980;44.898;8.602;2023-07-30T02:51:28;22.44;82.91
77052;SHT30;65980;44.898;8.602;2023-07-30T02:54:32;22.36;83.26
77052;SHT30;65980;44.898;8.602;2023-07-30T02:57:36;22.33;82.84
77052;SHT30;65980;44.898;8.602;2023-07-30T03:00:40;22.34;82.97
77052;SHT30;65980;44.898;8.602;2023-07-30T03:03:44;22.31;83.37
77052;SHT30;65980;44.898;8.602;2023-07-30T03:06:48;22.29;83.06
77052;SHT30;65980;44.898;8.602;2023-07-30T03:09:52;22.54;81.60
77052;SHT30;65980;44.898;8.602;2023-07-30T03:12:57;22.52;81.57
77052;SHT30;65980;44.898;8.602;2023-07-30T03:16:02;22.44;81.82
77052;SHT30;65980;44.898;8.602;2023-07-30T03:19:07;22.20;82.78
77052;SHT30;65980;44.898;8.602;2023-07-30T03:22:11;22.00;83.77
77052;SHT30;65980;44.898;8.602;2023-07-30T03:25:15;22.00;83.75
77052;SHT30;65980;44.898;8.602;2023-07-30T03:28:21;22.25;82.41
77052;SHT30;65980;44.898;8.602;2023-07-30T03:31:25;22.16;82.52
77052;SHT30;65980;44.898;8.602;2023-07-30T03:34:30;22.13;82.46
77052;SHT30;65980;44.898;8.602;2023-07-30T03:37:36;22.04;82.36
77052;SHT30;65980;44.898;8.602;2023-07-30T03:40:41;21.82;83.22
77052;SHT30;65980;44.898;8.602;2023-07-30T03:43:45;21.78;83.39
77052;SHT30;65980;44.898;8.602;2023-07-30T03:46:49;22.00;82.70
77052;SHT30;65980;44.898;8.602;2023-07-30T03:49:54;21.97;82.17
77052;SHT30;65980;44.898;8.602;2023-07-30T03:52:58;21.94;82.00
77052;SHT30;65980;44.898;8.602;2023-07-30T03:56:02;21.78;82.75
77052;SHT30;65980;44.898;8.602;2023-07-30T03:59:06;21.90;82.13
77052;SHT30;65980;44.898;8.602;2023-07-30T04:02:10;21.82;82.15
77052;SHT30;65980;44.898;8.602;2023-07-30T04:05:19;21.59;83.01
77052;SHT30;65980;44.898;8.602;2023-07-30T04:08:23;21.81;82.76
77052;SHT30;65980;44.898;8.602;2023-07-30T04:11:27;21.72;82.93
77052;SHT30;65980;44.898;8.602;2023-07-30T04:14:31;21.76;83.06
77052;SHT30;65980;44.898;8.602;2023-07-30T04:17:36;21.83;82.82
77052;SHT30;65980;44.898;8.602;2023-07-30T04:20:42;22.04;81.75
77052;SHT30;65980;44.898;8.602;2023-07-30T04:23:46;21.99;81.81
77052;SHT30;65980;44.898;8.602;2023-07-30T04:26:50;21.96;82.26
77052;SHT30;65980;44.898;8.602;2023-07-30T04:29:54;22.00;81.89
77052;SHT30;65980;44.898;8.602;2023-07-30T04:32:58;22.07;81.37
77052;SHT30;65980;44.898;8.602;2023-07-30T04:36:03;21.69;82.93
77052;SHT30;65980;44.898;8.602;2023-07-30T04:39:08;21.45;84.11
77052;SHT30;65980;44.898;8.602;2023-07-30T04:42:13;21.28;84.79
77052;SHT30;65980;44.898;8.602;2023-07-30T04:45:19;21.45;84.05
77052;SHT30;65980;44.898;8.602;2023-07-30T04:48:26;21.26;85.02
77052;SHT30;65980;44.898;8.602;2023-07-30T04:51:30;21.45;84.27
77052;SHT30;65980;44.898;8.602;2023-07-30T04:54:35;21.65;83.77
77052;SHT30;65980;44.898;8.602;2023-07-30T04:57:40;21.62;83.70
77052;SHT30;65980;44.898;8.602;2023-07-30T05:00:44;21.65;83.63
77052;SHT30;65980;44.898;8.602;2023-07-30T05:03:48;21.52;84.34
77052;SHT30;65980;44.898;8.602;2023-07-30T05:06:55;21.62;84.01
77052;SHT30;65980;44.898;8.602;2023-07-30T05:09:59;21.48;84.58
77052;SHT30;65980;44.898;8.602;2023-07-30T05:13:03;21.44;84.73
77052;SHT30;65980;44.898;8.602;2023-07-30T05:16:07;21.65;84.00
77052;SHT30;65980;44.898;8.602;2023-07-30T05:19:11;21.78;83.58
77052;SHT30;65980;44.898;8.602;2023-07-30T05:22:15;22.10;82.48
77052;SHT30;65980;44.898;8.602;2023-07-30T05:25:19;22.27;81.28
77052;SHT30;65980;44.898;8.602;2023-07-30T05:28:23;22.16;81.65
77052;SHT30;65980;44.898;8.602;2023-07-30T05:31:27;22.41;81.29
77052;SHT30;65980;44.898;8.602;2023-07-30T05:34:31;22.37;80.98
77052;SHT30;65980;44.898;8.602;2023-07-30T05:37:35;22.06;82.18
77052;SHT30;65980;44.898;8.602;2023-07-30T05:40:39;22.20;81.98
77052;SHT30;65980;44.898;8.602;2023-07-30T05:43:43;22.66;80.62
77052;SHT30;65980;44.898;8.602;2023-07-30T05:46:47;22.89;80.04
77052;SHT30;65980;44.898;8.602;2023-07-30T05:49:51;23.16;79.44
77052;SHT30;65980;44.898;8.602;2023-07-30T05:52:55;23.38;78.77
77052;SHT30;65980;44.898;8.602;2023-07-30T05:55:59;23.38;78.95
77052;SHT30;65980;44.898;8.602;2023-07-30T05:59:03;23.51;78.67
77052;SHT30;65980;44.898;8.602;2023-07-30T06:02:07;23.69;78.06
77052;SHT30;65980;44.898;8.602;2023-07-30T06:05:11;23.83;77.46
77052;SHT30;65980;44.898;8.602;2023-07-30T06:08:15;23.98;76.89
77052;SHT30;65980;44.898;8.602;2023-07-30T06:11:22;23.99;77.02
77052;SHT30;65980;44.898;8.602;2023-07-30T06:14:27;23.85;77.62
77052;SHT30;65980;44.898;8.602;2023-07-30T06:17:31;23.81;78.22
77052;SHT30;65980;44.898;8.602;2023-07-30T06:20:35;23.88;77.91
77052;SHT30;65980;44.898;8.602;2023-07-30T06:23:39;23.71;78.56
77052;SHT30;65980;44.898;8.602;2023-07-30T06:26:43;23.92;78.13
77052;SHT30;65980;44.898;8.602;2023-07-30T06:29:48;24.23;77.05
77052;SHT30;65980;44.898;8.602;2023-07-30T06:32:52;24.20;76.53
77052;SHT30;65980;44.898;8.602;2023-07-30T06:35:56;24.23;76.71
77052;SHT30;65980;44.898;8.602;2023-07-30T06:39:00;24.30;76.70
77052;SHT30;65980;44.898;8.602;2023-07-30T06:42:04;24.10;77.03
77052;SHT30;65980;44.898;8.602;2023-07-30T06:45:09;24.08;77.36
77052;SHT30;65980;44.898;8.602;2023-07-30T06:48:12;23.90;77.55
77052;SHT30;65980;44.898;8.602;2023-07-30T06:51:20;23.71;78.50
77052;SHT30;65980;44.898;8.602;2023-07-30T06:54:29;23.83;77.99
77052;SHT30;65980;44.898;8.602;2023-07-30T06:57:33;23.81;77.64
77052;SHT30;65980;44.898;8.602;2023-07-30T07:00:37;23.75;77.47
77052;SHT30;65980;44.898;8.602;2023-07-30T07:03:41;23.81;77.19
77052;SHT30;65980;44.898;8.602;2023-07-30T07:06:45;24.06;76.86
77052;SHT30;65980;44.898;8.602;2023-07-30T07:09:49;24.33;76.33
77052;SHT30;65980;44.898;8.602;2023-07-30T07:12:53;24.53;75.36
77052;SHT30;65980;44.898;8.602;2023-07-30T07:15:57;24.58;75.55
77052;SHT30;65980;44.898;8.602;2023-07-30T07:19:01;24.81;74.95
77052;SHT30;65980;44.898;8.602;2023-07-30T07:22:05;25.05;74.47
77052;SHT30;65980;44.898;8.602;2023-07-30T07:25:10;25.26;73.43
77052;SHT30;65980;44.898;8.602;2023-07-30T07:28:15;25.03;75.30
77052;SHT30;65980;44.898;8.602;2023-07-30T07:31:20;24.82;74.83
77052;SHT30;65980;44.898;8.602;2023-07-30T07:34:24;24.63;75.71
77052;SHT30;65980;44.898;8.602;2023-07-30T07:37:28;24.91;74.71
77052;SHT30;65980;44.898;8.602;2023-07-30T07:40:37;24.64;75.12
77052;SHT30;65980;44.898;8.602;2023-07-30T07:43:47;24.60;76.60
77052;SHT30;65980;44.898;8.602;2023-07-30T07:46:52;24.06;77.40
77052;SHT30;65980;44.898;8.602;2023-07-30T07:49:57;24.06;77.33
77052;SHT30;65980;44.898;8.602;2023-07-30T07:53:00;24.24;76.78
77052;SHT30;65980;44.898;8.602;2023-07-30T07:56:05;24.60;75.63
77052;SHT30;65980;44.898;8.602;2023-07-30T07:59:10;25.05;74.95
77052;SHT30;65980;44.898;8.602;2023-07-30T08:02:15;25.06;75.32
77052;SHT30;65980;44.898;8.602;2023-07-30T08:05:20;25.27;74.70
77052;SHT30;65980;44.898;8.602;2023-07-30T08:08:25;25.00;74.79
77052;SHT30;65980;44.898;8.602;2023-07-30T08:11:30;25.34;74.15
77052;SHT30;65980;44.898;8.602;2023-07-30T08:14:34;25.28;73.84
77052;SHT30;65980;44.898;8.602;2023-07-30T08:17:38;25.15;74.47
77052;SHT30;65980;44.898;8.602;2023-07-30T08:20:43;25.57;73.72
77052;SHT30;65980;44.898;8.602;2023-07-30T08:23:48;25.41;73.24
77052;SHT30;65980;44.898;8.602;2023-07-30T08:26:51;25.36;73.64
77052;SHT30;65980;44.898;8.602;2023-07-30T08:29:56;25.54;72.73
77052;SHT30;65980;44.898;8.602;2023-07-30T08:33:03;26.03;71.20
77052;SHT30;65980;44.898;8.602;2023-07-30T08:36:06;26.02;70.56
77052;SHT30;65980;44.898;8.602;2023-07-30T08:39:11;25.79;71.27
77052;SHT30;65980;44.898;8.602;2023-07-30T08:42:15;25.79;71.51
77052;SHT30;65980;44.898;8.602;2023-07-30T08:45:19;26.16;70.22
77052;SHT30;65980;44.898;8.602;2023-07-30T08:48:25;26.34;69.52
77052;SHT30;65980;44.898;8.602;2023-07-30T08:51:29;26.22;69.81
77052;SHT30;65980;44.898;8.602;2023-07-30T08:54:33;26.26;70.21
77052;SHT30;65980;44.898;8.602;2023-07-30T08:57:38;26.26;69.66
77052;SHT30;65980;44.898;8.602;2023-07-30T09:00:43;26.30;69.73
77052;SHT30;65980;44.898;8.602;2023-07-30T09:03:50;26.17;69.96
77052;SHT30;65980;44.898;8.602;2023-07-30T09:07:00;26.13;70.95
77052;SHT30;65980;44.898;8.602;2023-07-30T09:10:04;26.26;69.37
77052;SHT30;65980;44.898;8.602;2023-07-30T09:13:09;26.85;67.62
77052;SHT30;65980;44.898;8.602;2023-07-30T09:16:14;27.26;66.87
77052;SHT30;65980;44.898;8.602;2023-07-30T09:19:20;26.85;67.66
77052;SHT30;65980;44.898;8.602;2023-07-30T09:22:44;27.07;67.09
77052;SHT30;65980;44.898;8.602;2023-07-30T09:25:57;27.70;64.95
77052;SHT30;65980;44.898;8.602;2023-07-30T09:29:07;28.19;63.41
77052;SHT30;65980;44.898;8.602;2023-07-30T09:32:12;28.61;61.89
77052;SHT30;65980;44.898;8.602;2023-07-30T09:35:17;28.75;61.79
77052;SHT30;65980;44.898;8.602;2023-07-30T09:38:22;28.72;61.48
77052;SHT30;65980;44.898;8.602;2023-07-30T09:41:25;28.06;63.52
77052;SHT30;65980;44.898;8.602;2023-07-30T09:44:36;28.32;62.91
77052;SHT30;65980;44.898;8.602;2023-07-30T09:47:49;28.51;62.34
77052;SHT30;65980;44.898;8.602;2023-07-30T09:50:54;28.68;61.59
77052;SHT30;65980;44.898;8.602;2023-07-30T09:53:59;28.51;61.65
77052;SHT30;65980;44.898;8.602;2023-07-30T09:57:04;28.61;61.36
77052;SHT30;65980;44.898;8.602;2023-07-30T10:00:09;28.88;60.76
77052;SHT30;65980;44.898;8.602;2023-07-30T10:03:15;28.84;60.38
77052;SHT30;65980;44.898;8.602;2023-07-30T10:06:20;29.08;59.93
77052;SHT30;65980;44.898;8.602;2023-07-30T10:09:28;29.67;58.35
77052;SHT30;65980;44.898;8.602;2023-07-30T10:12:34;29.22;58.96
77052;SHT30;65980;44.898;8.602;2023-07-30T10:15:40;30.67;54.20
77052;SHT30;65980;44.898;8.602;2023-07-30T10:18:44;32.02;50.36
77052;SHT30;65980;44.898;8.602;2023-07-30T10:21:48;34.29;45.94
77052;SHT30;65980;44.898;8.602;2023-07-30T10:28:00;33.97;46.02
77052;SHT30;65980;44.898;8.602;2023-07-30T10:31:07;35.99;42.28
77052;SHT30;65980;44.898;8.602;2023-07-30T10:34:11;36.43;40.56
77052;SHT30;65980;44.898;8.602;2023-07-30T10:37:22;35.68;42.73
77052;SHT30;65980;44.898;8.602;2023-07-30T10:40:29;36.10;41.79
77052;SHT30;65980;44.898;8.602;2023-07-30T10:46:39;37.77;38.42
77052;SHT30;65980;44.898;8.602;2023-07-30T10:49:43;35.17;43.13
77052;SHT30;65980;44.898;8.602;2023-07-30T10:52:51;33.52;46.94
77052;SHT30;65980;44.898;8.602;2023-07-30T10:55:58;32.72;49.92
77052;SHT30;65980;44.898;8.602;2023-07-30T10:59:05;32.26;50.84
77052;SHT30;65980;44.898;8.602;2023-07-30T11:02:11;31.07;53.46
77052;SHT30;65980;44.898;8.602;2023-07-30T11:05:16;30.46;54.26
77052;SHT30;65980;44.898;8.602;2023-07-30T11:11:42;31.22;52.74
77052;SHT30;65980;44.898;8.602;2023-07-30T11:14:47;31.74;50.74
77052;SHT30;65980;44.898;8.602;2023-07-30T11:17:52;31.63;51.88
77052;SHT30;65980;44.898;8.602;2023-07-30T11:21:06;31.01;52.67
77052;SHT30;65980;44.898;8.602;2023-07-30T11:24:09;30.99;53.19
77052;SHT30;65980;44.898;8.602;2023-07-30T11:27:15;30.77;52.70
77052;SHT30;65980;44.898;8.602;2023-07-30T11:30:19;30.16;53.76
77052;SHT30;65980;44.898;8.602;2023-07-30T11:33:24;30.52;52.43
77052;SHT30;65980;44.898;8.602;2023-07-30T11:36:28;31.62;50.49
77052;SHT30;65980;44.898;8.602;2023-07-30T11:39:33;32.90;47.14
77052;SHT30;65980;44.898;8.602;2023-07-30T11:42:38;33.59;45.30
77052;SHT30;65980;44.898;8.602;2023-07-30T11:45:43;35.03;42.72
77052;SHT30;65980;44.898;8.602;2023-07-30T11:48:48;37.19;38.12
77052;SHT30;65980;44.898;8.602;2023-07-30T11:52:04;36.89;38.34
77052;SHT30;65980;44.898;8.602;2023-07-30T11:55:08;35.33;41.03
77052;SHT30;65980;44.898;8.602;2023-07-30T11:58:13;33.04;44.75
77052;SHT30;65980;44.898;8.602;2023-07-30T12:01:18;32.87;44.89
77052;SHT30;65980;44.898;8.602;2023-07-30T12:04:23;32.91;44.57
77052;SHT30;65980;44.898;8.602;2023-07-30T12:07:28;32.49;45.54
77052;SHT30;65980;44.898;8.602;2023-07-30T12:10:43;32.14;46.28
77052;SHT30;65980;44.898;8.602;2023-07-30T12:13:48;32.14;48.19
77052;SHT30;65980;44.898;8.602;2023-07-30T12:16:54;32.05;48.34
77052;SHT30;65980;44.898;8.602;2023-07-30T12:20:00;31.98;47.52
77052;SHT30;65980;44.898;8.602;2023-07-30T12:23:09;32.26;46.41
77052;SHT30;65980;44.898;8.602;2023-07-30T12:26:13;32.40;46.00
77052;SHT30;65980;44.898;8.602;2023-07-30T12:29:16;32.33;45.79
77052;SHT30;65980;44.898;8.602;2023-07-30T12:32:21;32.22;45.47
77052;SHT30;65980;44.898;8.602;2023-07-30T12:35:25;32.02;46.37
77052;SHT30;65980;44.898;8.602;2023-07-30T12:38:28;31.80;46.45
77052;SHT30;65980;44.898;8.602;2023-07-30T12:41:33;31.87;46.48
77052;SHT30;65980;44.898;8.602;2023-07-30T12:44:36;31.92;44.59
77052;SHT30;65980;44.898;8.602;2023-07-30T12:47:41;31.83;44.04
77052;SHT30;65980;44.898;8.602;2023-07-30T12:50:46;32.09;43.58
77052;SHT30;65980;44.898;8.602;2023-07-30T12:53:51;32.48;43.30
77052;SHT30;65980;44.898;8.602;2023-07-30T12:56:55;32.74;43.32
77052;SHT30;65980;44.898;8.602;2023-07-30T13:00:00;32.55;43.88
77052;SHT30;65980;44.898;8.602;2023-07-30T13:03:04;32.74;43.79
77052;SHT30;65980;44.898;8.602;2023-07-30T13:06:08;32.60;43.83
77052;SHT30;65980;44.898;8.602;2023-07-30T13:09:11;32.48;44.12
77052;SHT30;65980;44.898;8.602;2023-07-30T13:12:16;32.63;43.64
77052;SHT30;65980;44.898;8.602;2023-07-30T13:15:20;32.72;43.56
77052;SHT30;65980;44.898;8.602;2023-07-30T13:18:25;32.79;40.80
77052;SHT30;65980;44.898;8.602;2023-07-30T13:21:29;32.98;40.31
77052;SHT30;65980;44.898;8.602;2023-07-30T13:24:37;32.81;40.25
77052;SHT30;65980;44.898;8.602;2023-07-30T13:27:41;33.03;38.16
77052;SHT30;65980;44.898;8.602;2023-07-30T13:30:45;33.19;38.74
77052;SHT30;65980;44.898;8.602;2023-07-30T13:33:51;33.34;38.39
77052;SHT30;65980;44.898;8.602;2023-07-30T13:36:56;33.72;38.24
77052;SHT30;65980;44.898;8.602;2023-07-30T13:40:00;33.89;36.80
77052;SHT30;65980;44.898;8.602;2023-07-30T13:43:03;33.79;36.80
77052;SHT30;65980;44.898;8.602;2023-07-30T13:46:09;33.21;37.77
77052;SHT30;65980;44.898;8.602;2023-07-30T13:49:12;33.26;37.81
77052;SHT30;65980;44.898;8.602;2023-07-30T13:52:16;33.70;36.58
77052;SHT30;65980;44.898;8.602;2023-07-30T13:55:21;34.56;34.39
77052;SHT30;65980;44.898;8.602;2023-07-30T13:58:26;35.66;34.99
77052;SHT30;65980;44.898;8.602;2023-07-30T14:01:30;35.90;35.76
77052;SHT30;65980;44.898;8.602;2023-07-30T14:04:34;35.96;35.24
77052;SHT30;65980;44.898;8.602;2023-07-30T14:07:39;36.30;34.49
77052;SHT30;65980;44.898;8.602;2023-07-30T14:10:44;35.40;35.45
77052;SHT30;65980;44.898;8.602;2023-07-30T14:13:49;35.03;35.89
77052;SHT30;65980;44.898;8.602;2023-07-30T14:16:54;35.02;36.01
77052;SHT30;65980;44.898;8.602;2023-07-30T14:19:58;34.79;35.53
77052;SHT30;65980;44.898;8.602;2023-07-30T14:23:03;34.45;36.20
77052;SHT30;65980;44.898;8.602;2023-07-30T14:26:08;34.18;35.94
77052;SHT30;65980;44.898;8.602;2023-07-30T14:29:13;34.10;36.24
77052;SHT30;65980;44.898;8.602;2023-07-30T14:32:23;34.27;36.01
77052;SHT30;65980;44.898;8.602;2023-07-30T14:35:28;34.34;34.41
77052;SHT30;65980;44.898;8.602;2023-07-30T14:38:32;34.44;34.32
77052;SHT30;65980;44.898;8.602;2023-07-30T14:41:38;34.42;34.41
77052;SHT30;65980;44.898;8.602;2023-07-30T14:44:43;34.03;35.18
77052;SHT30;65980;44.898;8.602;2023-07-30T14:47:47;34.00;35.41
77052;SHT30;65980;44.898;8.602;2023-07-30T14:50:51;34.08;35.87
77052;SHT30;65980;44.898;8.602;2023-07-30T14:53:55;34.25;35.61
77052;SHT30;65980;44.898;8.602;2023-07-30T14:56:59;34.11;35.82
77052;SHT30;65980;44.898;8.602;2023-07-30T15:00:05;33.94;36.29
77052;SHT30;65980;44.898;8.602;2023-07-30T15:03:10;33.66;36.30
77052;SHT30;65980;44.898;8.602;2023-07-30T15:06:15;33.62;36.59
77052;SHT30;65980;44.898;8.602;2023-07-30T15:09:21;33.51;36.80
77052;SHT30;65980;44.898;8.602;2023-07-30T15:12:26;33.43;36.88
77052;SHT30;65980;44.898;8.602;2023-07-30T15:15:29;33.45;36.74
77052;SHT30;65980;44.898;8.602;2023-07-30T15:18:35;33.66;36.86
77052;SHT30;65980;44.898;8.602;2023-07-30T15:21:38;33.87;36.88
77052;SHT30;65980;44.898;8.602;2023-07-30T15:24:43;34.24;37.08
77052;SHT30;65980;44.898;8.602;2023-07-30T15:27:48;34.32;38.18
77052;SHT30;65980;44.898;8.602;2023-07-30T15:30:53;33.68;40.27
77052;SHT30;65980;44.898;8.602;2023-07-30T15:33:58;33.35;41.63
77052;SHT30;65980;44.898;8.602;2023-07-30T15:37:02;33.34;42.12
77052;SHT30;65980;44.898;8.602;2023-07-30T15:40:07;33.41;42.59
77052;SHT30;65980;44.898;8.602;2023-07-30T15:43:12;33.49;42.89
77052;SHT30;65980;44.898;8.602;2023-07-30T15:46:16;33.38;42.93
77052;SHT30;65980;44.898;8.602;2023-07-30T15:49:25;33.43;43.31
77052;SHT30;65980;44.898;8.602;2023-07-30T15:52:29;33.43;43.58
77052;SHT30;65980;44.898;8.602;2023-07-30T15:55:33;33.34;43.11
77052;SHT30;65980;44.898;8.602;2023-07-30T15:58:38;33.39;43.24
77052;SHT30;65980;44.898;8.602;2023-07-30T16:01:42;33.22;42.98
77052;SHT30;65980;44.898;8.602;2023-07-30T16:04:46;33.21;43.36
77052;SHT30;65980;44.898;8.602;2023-07-30T16:07:50;33.04;43.85
77052;SHT30;65980;44.898;8.602;2023-07-30T16:11:05;32.87;44.11
77052;SHT30;65980;44.898;8.602;2023-07-30T16:14:09;32.77;44.63
77052;SHT30;65980;44.898;8.602;2023-07-30T16:17:13;32.73;44.70
77052;SHT30;65980;44.898;8.602;2023-07-30T16:20:18;32.83;44.24
77052;SHT30;65980;44.898;8.602;2023-07-30T16:23:22;32.62;44.65
77052;SHT30;65980;44.898;8.602;2023-07-30T16:26:26;32.83;44.07
77052;SHT30;65980;44.898;8.602;2023-07-30T16:29:31;33.04;43.91
77052;SHT30;65980;44.898;8.602;2023-07-30T16:32:37;33.60;42.63
77052;SHT30;65980;44.898;8.602;2023-07-30T16:35:40;33.74;41.87
77052;SHT30;65980;44.898;8.602;2023-07-30T16:38:44;33.65;42.70
77052;SHT30;65980;44.898;8.602;2023-07-30T16:41:48;33.28;43.13
77052;SHT30;65980;44.898;8.602;2023-07-30T16:44:53;33.17;43.40
77052;SHT30;65980;44.898;8.602;2023-07-30T16:47:57;32.77;44.31
77052;SHT30;65980;44.898;8.602;2023-07-30T16:51:01;32.42;45.01
77052;SHT30;65980;44.898;8.602;2023-07-30T16:54:05;32.15;45.62
77052;SHT30;65980;44.898;8.602;2023-07-30T16:57:09;32.00;45.77
77052;SHT30;65980;44.898;8.602;2023-07-30T17:00:13;31.94;45.98
77052;SHT30;65980;44.898;8.602;2023-07-30T17:03:17;31.78;46.00
77052;SHT30;65980;44.898;8.602;2023-07-30T17:06:21;31.85;45.74
77052;SHT30;65980;44.898;8.602;2023-07-30T17:09:25;31.88;44.93
77052;SHT30;65980;44.898;8.602;2023-07-30T17:12:29;31.74;45.46
77052;SHT30;65980;44.898;8.602;2023-07-30T17:15:35;31.72;45.17
77052;SHT30;65980;44.898;8.602;2023-07-30T17:18:39;31.67;45.07
77052;SHT30;65980;44.898;8.602;2023-07-30T17:21:43;31.54;45.39
77052;SHT30;65980;44.898;8.602;2023-07-30T17:24:47;31.42;45.83
77052;SHT30;65980;44.898;8.602;2023-07-30T17:27:51;31.14;46.38
77052;SHT30;65980;44.898;8.602;2023-07-30T17:30:56;31.07;46.96
77052;SHT30;65980;44.898;8.602;2023-07-30T17:34:00;30.98;46.90
77052;SHT30;65980;44.898;8.602;2023-07-30T17:37:04;30.80;46.48
77052;SHT30;65980;44.898;8.602;2023-07-30T17:40:10;30.71;46.62
77052;SHT30;65980;44.898;8.602;2023-07-30T17:43:14;30.66;46.99
77052;SHT30;65980;44.898;8.602;2023-07-30T17:46:19;30.57;47.25
77052;SHT30;65980;44.898;8.602;2023-07-30T17:49:24;30.30;47.64
77052;SHT30;65980;44.898;8.602;2023-07-30T17:52:28;30.16;47.77
77052;SHT30;65980;44.898;8.602;2023-07-30T17:55:32;30.04;48.25
77052;SHT30;65980;44.898;8.602;2023-07-30T17:58:37;30.11;48.32
77052;SHT30;65980;44.898;8.602;2023-07-30T18:01:41;30.09;47.98
77052;SHT30;65980;44.898;8.602;2023-07-30T18:04:45;29.89;48.76
77052;SHT30;65980;44.898;8.602;2023-07-30T18:07:49;29.85;48.68
77052;SHT30;65980;44.898;8.602;2023-07-30T18:10:54;29.73;49.71
77052;SHT30;65980;44.898;8.602;2023-07-30T18:13:58;29.50;50.43
77052;SHT30;65980;44.898;8.602;2023-07-30T18:17:02;29.53;50.37
77052;SHT30;65980;44.898;8.602;2023-07-30T18:20:07;29.50;50.43
77052;SHT30;65980;44.898;8.602;2023-07-30T18:23:12;29.46;50.44
77052;SHT30;65980;44.898;8.602;2023-07-30T18:26:16;29.29;50.96
77052;SHT30;65980;44.898;8.602;2023-07-30T18:29:21;29.16;51.86
77052;SHT30;65980;44.898;8.602;2023-07-30T18:32:26;29.13;51.79
77052;SHT30;65980;44.898;8.602;2023-07-30T18:35:31;29.05;52.02
77052;SHT30;65980;44.898;8.602;2023-07-30T18:38:35;29.08;51.98
77052;SHT30;65980;44.898;8.602;2023-07-30T18:41:40;28.95;52.46
77052;SHT30;65980;44.898;8.602;2023-07-30T18:44:45;28.94;52.46
77052;SHT30;65980;44.898;8.602;2023-07-30T18:47:49;28.91;52.59
77052;SHT30;65980;44.898;8.602;2023-07-30T18:50:53;28.75;52.89
77052;SHT30;65980;44.898;8.602;2023-07-30T18:53:57;28.65;53.12
77052;SHT30;65980;44.898;8.602;2023-07-30T18:57:01;28.59;53.28
77052;SHT30;65980;44.898;8.602;2023-07-30T19:00:06;28.41;53.88
77052;SHT30;65980;44.898;8.602;2023-07-30T19:03:10;28.33;54.30
77052;SHT30;65980;44.898;8.602;2023-07-30T19:06:15;28.35;54.06
77052;SHT30;65980;44.898;8.602;2023-07-30T19:09:20;28.36;53.88
77052;SHT30;65980;44.898;8.602;2023-07-30T19:12:25;28.35;53.84
77052;SHT30;65980;44.898;8.602;2023-07-30T19:15:29;28.24;54.35
77052;SHT30;65980;44.898;8.602;2023-07-30T19:18:34;28.12;54.83
77052;SHT30;65980;44.898;8.602;2023-07-30T19:21:38;27.87;55.44
77052;SHT30;65980;44.898;8.602;2023-07-30T19:24:43;28.01;55.18
77052;SHT30;65980;44.898;8.602;2023-07-30T19:27:49;27.95;55.47
77052;SHT30;65980;44.898;8.602;2023-07-30T19:30:53;27.92;55.06
77052;SHT30;65980;44.898;8.602;2023-07-30T19:34:08;27.96;55.03
77052;SHT30;65980;44.898;8.602;2023-07-30T19:37:13;27.85;55.39